• Join FlightAware (Why Join?)
  • Login
  • US Flag 
12:56PM EDT


 

Airport Tracker/Info


-or-


 

Live Flight TrackerFlight Track Log ✈ VH-CZD ✈ 02-May-2013 ✈ YPJT / JAD - YPJT / JAD

Flight Track Log - Related Links

Times and Time Zones

All times are in EDT time to prevent confusion due to time zone crossing. See the VH-CZD flight status page for this flight to view local times or setup timezone preferences in your user account.

Time Position Orientation Groundspeed Altitude Reporting Facility
EDT Latitude Longitude Course Direction KTS MPH feet Rate Location/Type
02:58AM -32.0923 115.8576 329° Northwest 83 96 900  Level Aus ATC (RADAR)
02:59AM -32.0820 115.8503 329° Northwest 85 98 1,400 840 Climbing Aus ATC (RADAR)
02:59AM -32.0761 115.8446 321° Northwest 85 98 1,600 720 Climbing Aus ATC (RADAR)
02:59AM -32.0679 115.8340 312° West 86 99 2,000 660 Climbing Aus ATC (RADAR)
03:00AM -32.0737 115.8118 253° West 86 99 2,600 240 Climbing Aus ATC (RADAR)
03:01AM -32.0823 115.7924 243° Southwest 97 112 2,400  Descending Aus ATC (RADAR)
03:02AM -32.0895 115.7677 251° West 95 109 2,600  Climbing Aus ATC (RADAR)
03:02AM -32.0887 115.7598 277° West 95 109 2,400 -120 Descending Aus ATC (RADAR)
03:03AM -32.0800 115.7280 288° West 105 121 2,500  Climbing Aus ATC (RADAR)
03:04AM -32.0668 115.7162 323° Northwest 102 117 2,500 -120 Level Aus ATC (RADAR)
03:05AM -32.0515 115.7077 335° Northwest 120 138 2,400  Descending Aus ATC (RADAR)
03:06AM -32.0232 115.7056 356° North 109 125 2,600 60 Climbing Aus ATC (RADAR)
03:06AM -32.0078 115.6963 333° Northwest 106 122 2,500 -300 Descending Aus ATC (RADAR)
03:07AM -32.0040 115.6708 280° West 96 110 2,200 -420 Descending Aus ATC (RADAR)
03:07AM -32.0046 115.6626 265° West 97 112 2,100 -600 Descending Aus ATC (RADAR)
03:08AM -32.0067 115.6340 265° West 101 116 1,600 -660 Descending Aus ATC (RADAR)
03:09AM -32.0080 115.6064 267° West 99 114 1,100 -600 Descending Aus ATC (RADAR)
03:09AM -32.0070 115.5896 274° West 98 113 800 -240 Descending Aus ATC (RADAR)
03:10AM -32.0059 115.5612 273° West 90 104 800 60 Level Aus ATC (RADAR)
03:11AM -32.0074 115.5422 264° West 97 112 900 480 Climbing Aus ATC (RADAR)
03:12AM -32.0086 115.5135 267° West 94 108 1,600 660 Climbing Aus ATC (RADAR)
03:12AM -32.0083 115.5060 273° West 92 106 1,700 120 Climbing Aus ATC (RADAR)
03:13AM -32.0068 115.4870 275° West 99 114 1,700 -180 Level Aus ATC (RADAR)
03:14AM -31.9868 115.4729 329° Northwest 120 138 1,500 -180 Descending Aus ATC (RADAR)
03:14AM -31.9824 115.4848 67° East 137 158 1,500 -120 Level Aus ATC (RADAR)
03:15AM -31.9796 115.5133 83° East 144 166 1,400 -120 Descending Aus ATC (RADAR)
03:15AM -31.9677 115.5528 70° East 133 153 1,400 120 Level Aus ATC (RADAR)
03:16AM -31.9641 115.5847 83° East 143 165 1,600  Climbing Aus ATC (RADAR)
03:17AM -31.9579 115.6277 80° East 141 162 1,400 -180 Descending Aus ATC (RADAR)
03:18AM -31.9545 115.6549 82° East 138 159 1,400  Level Aus ATC (RADAR)
03:19AM -31.9391 115.7165 74° East 137 158 1,400  Level Aus ATC (RADAR)
03:19AM -31.9312 115.7225 33° Northeast 135 155 1,400 120 Level Aus ATC (RADAR)
03:20AM -31.9123 115.7284 15° North 120 138 1,500  Climbing Aus ATC (RADAR)
03:21AM -31.8852 115.7334 North 106 122 1,400 -120 Descending Aus ATC (RADAR)
03:21AM -31.8946 115.7185 233° Southwest 107 123 1,400  Level Aus ATC (RADAR)
03:23AM -31.9333 115.7257 171° South 121 139 1,500  Climbing Aus ATC (RADAR)
03:24AM -31.9652 115.7034 211° Southwest 110 127 1,500  Level Aus ATC (RADAR)
03:24AM -31.9826 115.7012 186° South 122 140 1,500 -180 Level Aus ATC (RADAR)
03:24AM -31.9905 115.6981 198° South 120 138 1,400 120 Descending Aus ATC (RADAR)
03:25AM -32.0055 115.6874 211° Southwest 109 125 1,600  Climbing Aus ATC (RADAR)
03:26AM -32.0068 115.6431 268° West 94 108 1,400 -240 Descending Aus ATC (RADAR)
03:27AM -32.0043 115.6180 277° West 79 91 1,100 -360 Descending Aus ATC (RADAR)
03:28AM -32.0048 115.6116 264° West 75 86 1,000 -240 Descending Aus ATC (RADAR)
03:28AM -32.0060 115.5965 265° West 77 89 900 -240 Descending Aus ATC (RADAR)
03:29AM -32.0067 115.5648 268° West 84 97 600 -180 Descending Aus ATC (RADAR)
03:30AM -32.0063 115.5579 275° West 83 96 700 540 Climbing Aus ATC (RADAR)
03:30AM -32.0063 115.5400 270° West 80 92 1,100 480 Climbing Aus ATC (RADAR)
03:31AM -32.0076 115.5075 267° West 86 99 1,600 180 Climbing Aus ATC (RADAR)
03:32AM -32.0027 115.4907 289° West 85 98 1,500 -120 Descending Aus ATC (RADAR)
03:33AM -31.9805 115.4987 17° North 121 139 1,500  Level Aus ATC (RADAR)
03:34AM -31.9770 115.5519 85° East 138 159 1,500 -60 Level Aus ATC (RADAR)
03:35AM -31.9789 115.5829 94° East 139 160 1,400 -120 Descending Aus ATC (RADAR)
03:35AM -31.9746 115.5935 65° Northeast 138 159 1,400 240 Level Aus ATC (RADAR)
03:35AM -31.9634 115.6155 59° Northeast 133 153 1,600  Climbing Aus ATC (RADAR)
03:36AM -31.9561 115.6526 77° East 137 158 1,400 -120 Descending Aus ATC (RADAR)
03:37AM -31.9508 115.6827 78° East 136 157 1,500  Climbing Aus ATC (RADAR)
03:38AM -31.9235 115.7251 53° Northeast 126 145 1,400  Descending Aus ATC (RADAR)
03:41AM -31.9258 115.7257 168° South 123 142 1,700 60 Climbing Aus ATC (RADAR)
03:41AM -31.9357 115.7218 198° South 116 133 1,600 -300 Descending Aus ATC (RADAR)
03:42AM -31.9622 115.7079 204° Southwest 114 131 1,400 -180 Descending Aus ATC (RADAR)
03:42AM -31.9796 115.7007 199° South 113 130 1,400  Level Aus ATC (RADAR)
03:43AM -32.0059 115.6902 199° South 109 125 1,400  Level Aus ATC (RADAR)
03:44AM -32.0051 115.6638 272° West 92 106 1,500  Climbing Aus ATC (RADAR)
03:45AM -32.0070 115.6396 265° West 98 113 1,400 -180 Descending Aus ATC (RADAR)
03:46AM -32.0075 115.6224 268° West 86 99 1,300 -480 Descending Aus ATC (RADAR)
03:47AM -32.0061 115.5954 273° West 81 93 700 -480 Descending Aus ATC (RADAR)
03:47AM -32.0064 115.5840 268° West 81 93 700 60 Level Aus ATC (RADAR)
03:48AM -32.0061 115.5591 271° West 82 94 800  Climbing Aus ATC (RADAR)
03:48AM -32.0062 115.5517 269° West 85 98 700 720 Descending Aus ATC (RADAR)
03:49AM -32.0048 115.5237 273° West 89 102 1,700 480 Climbing Aus ATC (RADAR)
03:50AM -32.0057 115.5043 267° West 98 113 1,500 -240 Descending Aus ATC (RADAR)
03:50AM -32.0065 115.4956 264° West 102 117 1,500 240 Level Aus ATC (RADAR)
03:51AM -32.0190 115.4854 215° Southwest 103 119 1,700  Climbing Aus ATC (RADAR)
03:52AM -32.0280 115.5296 103° East 136 157 1,500 -240 Descending Aus ATC (RADAR)
03:52AM -32.0292 115.5565 93° East 137 158 1,400 -120 Descending Aus ATC (RADAR)
03:53AM -32.0419 115.5949 111° Southeast 134 154 1,400  Level Aus ATC (RADAR)
03:54AM -32.0534 115.6178 121° Southeast 137 158 1,400  Level Aus ATC (RADAR)
03:56AM -32.0791 115.6988 111° Southeast 136 157 1,400  Level Aus ATC (RADAR)
03:56AM -32.0893 115.7338 109° East 130 150 1,400 60 Level Aus ATC (RADAR)
03:57AM -32.0923 115.7676 96° East 133 153 1,500  Climbing Aus ATC (RADAR)
03:58AM -32.0918 115.7945 89° East 136 157 1,400 -120 Descending Aus ATC (RADAR)
03:59AM -32.0980 115.8351 100° East 137 158 1,400 60 Level Aus ATC (RADAR)
03:59AM -32.1138 115.8688 119° Southeast 136 157 1,600 -360 Climbing Aus ATC (RADAR)
04:00AM -32.1247 115.8952 116° Southeast 113 130 900 -720 Descending Aus ATC (RADAR)
04:01AM -32.1105 115.9013 20° North 88 101 600 -540 Descending Aus ATC (RADAR)
04:02AM -32.1030 115.8808 294° West 70 81 100 -600 Descending Aus ATC (RADAR)